Terminal Aerodrome Forecast
Issued by NWS Twin Cities, MN

Home | Current Version | Previous Version | Text Only | Print | Product List | Glossary On
Versions: 1 2 3 4 5 6 7 8 9 10 11 12 13 14 15 16 17 18 19 20 21 22 23
000
FTUS43 KMPX 231456 AAB
TAFEAU
TAF AMD
KEAU 231456Z 2315/2412 27004KT 1SM BR VV002
     FM231700 28003KT 4SM BR OVC004
     FM231900 28003KT 5SM BR OVC008
     FM240200 VRB02KT 3SM BR OVC005
      TEMPO 2408/2412 1SM BR OVC003=

USA.gov is the U.S. government's official web portal to all federal, state and local government web resources and services.